sensor_id;sensor_type;location;lat;lon;timestamp;pressure;altitude;pressure_sealevel;temperature;humidity
32083;BME280;18597;48.328;7.932;2023-10-08T00:00:50;100546.75;;;8.49;100.00
32083;BME280;18597;48.328;7.932;2023-10-08T00:03:21;100552.09;;;8.49;100.00
32083;BME280;18597;48.328;7.932;2023-10-08T00:05:48;100542.56;;;8.45;100.00
32083;BME280;18597;48.328;7.932;2023-10-08T00:08:15;100543.53;;;8.44;100.00
32083;BME280;18597;48.328;7.932;2023-10-08T00:10:43;100537.63;;;8.53;100.00
32083;BME280;18597;48.328;7.932;2023-10-08T00:13:12;100540.47;;;8.79;100.00
32083;BME280;18597;48.328;7.932;2023-10-08T00:15:39;100537.41;;;8.85;100.00
32083;BME280;18597;48.328;7.932;2023-10-08T00:18:25;100540.44;;;8.93;100.00
32083;BME280;18597;48.328;7.932;2023-10-08T00:20:52;100544.81;;;8.94;100.00
32083;BME280;18597;48.328;7.932;2023-10-08T00:23:24;100541.66;;;9.02;100.00
32083;BME280;18597;48.328;7.932;2023-10-08T00:25:53;100545.88;;;9.18;100.00
32083;BME280;18597;48.328;7.932;2023-10-08T00:28:22;100537.59;;;9.23;100.00
32083;BME280;18597;48.328;7.932;2023-10-08T00:30:48;100536.13;;;9.32;100.00
32083;BME280;18597;48.328;7.932;2023-10-08T00:33:14;100530.56;;;9.22;100.00
32083;BME280;18597;48.328;7.932;2023-10-08T00:35:41;100527.66;;;9.25;100.00
32083;BME280;18597;48.328;7.932;2023-10-08T00:38:08;100518.09;;;9.35;100.00
32083;BME280;18597;48.328;7.932;2023-10-08T00:40:41;100522.78;;;9.32;100.00
32083;BME280;18597;48.328;7.932;2023-10-08T00:43:33;100520.53;;;9.26;100.00
32083;BME280;18597;48.328;7.932;2023-10-08T00:46:04;100518.31;;;9.32;100.00
32083;BME280;18597;48.328;7.932;2023-10-08T00:48:32;100525.50;;;9.17;100.00
32083;BME280;18597;48.328;7.932;2023-10-08T00:51:03;100520.81;;;8.94;100.00
32083;BME280;18597;48.328;7.932;2023-10-08T00:53:57;100510.28;;;8.78;100.00
32083;BME280;18597;48.328;7.932;2023-10-08T00:56:28;100508.50;;;8.65;100.00
32083;BME280;18597;48.328;7.932;2023-10-08T00:59:12;100515.78;;;8.89;100.00
32083;BME280;18597;48.328;7.932;2023-10-08T01:01:40;100511.88;;;8.95;100.00
32083;BME280;18597;48.328;7.932;2023-10-08T01:04:06;100513.19;;;9.02;100.00
32083;BME280;18597;48.328;7.932;2023-10-08T01:06:38;100515.19;;;8.99;100.00
32083;BME280;18597;48.328;7.932;2023-10-08T01:09:05;100517.91;;;8.84;100.00
32083;BME280;18597;48.328;7.932;2023-10-08T01:11:44;100514.22;;;8.58;100.00
32083;BME280;18597;48.328;7.932;2023-10-08T01:14:16;100521.84;;;8.50;100.00
32083;BME280;18597;48.328;7.932;2023-10-08T01:16:50;100514.03;;;8.61;100.00
32083;BME280;18597;48.328;7.932;2023-10-08T01:19:19;100502.16;;;8.39;100.00
32083;BME280;18597;48.328;7.932;2023-10-08T01:21:46;100502.41;;;8.34;100.00
32083;BME280;18597;48.328;7.932;2023-10-08T01:24:12;100499.00;;;8.46;100.00
32083;BME280;18597;48.328;7.932;2023-10-08T01:26:42;100499.31;;;8.56;100.00
32083;BME280;18597;48.328;7.932;2023-10-08T01:29:10;100502.13;;;8.53;100.00
32083;BME280;18597;48.328;7.932;2023-10-08T01:31:46;100509.47;;;8.49;100.00
32083;BME280;18597;48.328;7.932;2023-10-08T01:34:14;100503.19;;;8.65;100.00
32083;BME280;18597;48.328;7.932;2023-10-08T01:36:42;100510.22;;;8.51;100.00
32083;BME280;18597;48.328;7.932;2023-10-08T01:39:11;100514.31;;;8.43;100.00
32083;BME280;18597;48.328;7.932;2023-10-08T01:41:45;100505.50;;;8.42;100.00
32083;BME280;18597;48.328;7.932;2023-10-08T01:44:12;100508.88;;;8.30;100.00
32083;BME280;18597;48.328;7.932;2023-10-08T01:46:38;100505.22;;;8.47;100.00
32083;BME280;18597;48.328;7.932;2023-10-08T01:49:07;100510.50;;;8.61;100.00
32083;BME280;18597;48.328;7.932;2023-10-08T01:51:40;100510.97;;;8.53;100.00
32083;BME280;18597;48.328;7.932;2023-10-08T01:54:13;100506.44;;;8.55;100.00
32083;BME280;18597;48.328;7.932;2023-10-08T01:56:41;100501.28;;;8.38;100.00
32083;BME280;18597;48.328;7.932;2023-10-08T01:59:11;100499.19;;;8.29;100.00
32083;BME280;18597;48.328;7.932;2023-10-08T02:01:40;100495.00;;;8.25;100.00
32083;BME280;18597;48.328;7.932;2023-10-08T02:04:07;100492.66;;;8.49;100.00
32083;BME280;18597;48.328;7.932;2023-10-08T02:06:34;100489.38;;;8.72;100.00
32083;BME280;18597;48.328;7.932;2023-10-08T02:09:01;100488.06;;;8.65;100.00
32083;BME280;18597;48.328;7.932;2023-10-08T02:11:47;100491.19;;;8.57;100.00
32083;BME280;18597;48.328;7.932;2023-10-08T02:14:17;100496.63;;;8.56;100.00
32083;BME280;18597;48.328;7.932;2023-10-08T02:16:44;100493.88;;;8.57;100.00
32083;BME280;18597;48.328;7.932;2023-10-08T02:19:10;100487.69;;;8.57;100.00
32083;BME280;18597;48.328;7.932;2023-10-08T02:21:37;100492.28;;;8.82;100.00
32083;BME280;18597;48.328;7.932;2023-10-08T02:24:07;100491.53;;;8.80;100.00
32083;BME280;18597;48.328;7.932;2023-10-08T02:26:34;100486.81;;;8.71;100.00
32083;BME280;18597;48.328;7.932;2023-10-08T02:29:01;100483.50;;;8.53;100.00
32083;BME280;18597;48.328;7.932;2023-10-08T02:31:27;100491.13;;;8.45;100.00
32083;BME280;18597;48.328;7.932;2023-10-08T02:33:54;100483.94;;;8.31;100.00
32083;BME280;18597;48.328;7.932;2023-10-08T02:36:19;100479.91;;;8.40;100.00
32083;BME280;18597;48.328;7.932;2023-10-08T02:38:45;100493.59;;;8.62;100.00
32083;BME280;18597;48.328;7.932;2023-10-08T02:41:16;100493.88;;;8.43;100.00
32083;BME280;18597;48.328;7.932;2023-10-08T02:43:43;100496.72;;;8.26;100.00
32083;BME280;18597;48.328;7.932;2023-10-08T02:46:10;100493.19;;;8.11;100.00
32083;BME280;18597;48.328;7.932;2023-10-08T02:48:41;100500.13;;;7.99;100.00
32083;BME280;18597;48.328;7.932;2023-10-08T02:51:07;100488.81;;;7.96;100.00
32083;BME280;18597;48.328;7.932;2023-10-08T02:53:40;100490.81;;;8.06;100.00
32083;BME280;18597;48.328;7.932;2023-10-08T02:56:08;100485.84;;;8.00;100.00
32083;BME280;18597;48.328;7.932;2023-10-08T02:58:40;100498.25;;;8.01;100.00
32083;BME280;18597;48.328;7.932;2023-10-08T03:01:07;100501.81;;;8.00;100.00
32083;BME280;18597;48.328;7.932;2023-10-08T03:03:40;100487.59;;;8.01;100.00
32083;BME280;18597;48.328;7.932;2023-10-08T03:06:06;100478.19;;;8.24;100.00
32083;BME280;18597;48.328;7.932;2023-10-08T03:08:37;100487.31;;;8.49;100.00
32083;BME280;18597;48.328;7.932;2023-10-08T03:11:06;100482.34;;;8.57;100.00
32083;BME280;18597;48.328;7.932;2023-10-08T03:13:32;100480.94;;;8.51;100.00
32083;BME280;18597;48.328;7.932;2023-10-08T03:16:00;100477.59;;;8.33;100.00
32083;BME280;18597;48.328;7.932;2023-10-08T03:18:36;100479.91;;;8.25;100.00
32083;BME280;18597;48.328;7.932;2023-10-08T03:21:07;100479.50;;;8.31;100.00
32083;BME280;18597;48.328;7.932;2023-10-08T03:23:52;100478.94;;;8.12;100.00
32083;BME280;18597;48.328;7.932;2023-10-08T03:26:22;100482.56;;;8.25;100.00
32083;BME280;18597;48.328;7.932;2023-10-08T03:29:05;100479.69;;;8.28;100.00
32083;BME280;18597;48.328;7.932;2023-10-08T03:31:41;100477.22;;;8.25;100.00
32083;BME280;18597;48.328;7.932;2023-10-08T03:34:25;100480.38;;;8.32;100.00
32083;BME280;18597;48.328;7.932;2023-10-08T03:36:59;100483.22;;;8.43;100.00
32083;BME280;18597;48.328;7.932;2023-10-08T03:39:31;100478.28;;;8.37;100.00
32083;BME280;18597;48.328;7.932;2023-10-08T03:42:24;100481.88;;;8.22;100.00
32083;BME280;18597;48.328;7.932;2023-10-08T03:44:52;100477.91;;;8.43;100.00
32083;BME280;18597;48.328;7.932;2023-10-08T03:47:19;100472.47;;;8.45;100.00
32083;BME280;18597;48.328;7.932;2023-10-08T03:49:49;100484.25;;;8.26;100.00
32083;BME280;18597;48.328;7.932;2023-10-08T03:52:17;100489.00;;;8.21;100.00
32083;BME280;18597;48.328;7.932;2023-10-08T03:54:49;100489.00;;;8.21;100.00
32083;BME280;18597;48.328;7.932;2023-10-08T03:57:25;100484.06;;;8.29;100.00
32083;BME280;18597;48.328;7.932;2023-10-08T04:00:09;100486.25;;;8.23;100.00
32083;BME280;18597;48.328;7.932;2023-10-08T04:02:44;100475.25;;;8.43;100.00
32083;BME280;18597;48.328;7.932;2023-10-08T04:05:22;100479.50;;;8.31;100.00
32083;BME280;18597;48.328;7.932;2023-10-08T04:07:53;100475.53;;;8.24;100.00
32083;BME280;18597;48.328;7.932;2023-10-08T04:10:39;100480.63;;;8.13;100.00
32083;BME280;18597;48.328;7.932;2023-10-08T04:13:17;100479.41;;;8.19;100.00
32083;BME280;18597;48.328;7.932;2023-10-08T04:15:44;100471.53;;;8.17;100.00
32083;BME280;18597;48.328;7.932;2023-10-08T04:18:11;100462.22;;;8.24;100.00
32083;BME280;18597;48.328;7.932;2023-10-08T04:20:38;100465.34;;;8.17;100.00
32083;BME280;18597;48.328;7.932;2023-10-08T04:23:08;100469.53;;;8.35;100.00
32083;BME280;18597;48.328;7.932;2023-10-08T04:25:49;100468.00;;;8.17;100.00
32083;BME280;18597;48.328;7.932;2023-10-08T04:28:21;100475.41;;;8.12;100.00
32083;BME280;18597;48.328;7.932;2023-10-08T04:30:47;100473.72;;;8.11;100.00
32083;BME280;18597;48.328;7.932;2023-10-08T04:33:14;100476.16;;;8.14;100.00
32083;BME280;18597;48.328;7.932;2023-10-08T04:35:42;100478.56;;;8.18;100.00
32083;BME280;18597;48.328;7.932;2023-10-08T04:38:20;100475.13;;;8.02;100.00
32083;BME280;18597;48.328;7.932;2023-10-08T04:40:49;100466.19;;;7.89;100.00
32083;BME280;18597;48.328;7.932;2023-10-08T04:43:18;100460.66;;;7.92;100.00
32083;BME280;18597;48.328;7.932;2023-10-08T04:45:51;100464.84;;;7.82;100.00
32083;BME280;18597;48.328;7.932;2023-10-08T04:48:17;100474.41;;;7.70;100.00
32083;BME280;18597;48.328;7.932;2023-10-08T04:50:48;100477.00;;;7.86;100.00
32083;BME280;18597;48.328;7.932;2023-10-08T04:53:32;100479.75;;;7.84;100.00
32083;BME280;18597;48.328;7.932;2023-10-08T04:56:04;100487.75;;;7.98;100.00
32083;BME280;18597;48.328;7.932;2023-10-08T04:58:33;100480.63;;;7.85;100.00
32083;BME280;18597;48.328;7.932;2023-10-08T05:01:00;100482.78;;;7.78;100.00
32083;BME280;18597;48.328;7.932;2023-10-08T05:03:46;100467.63;;;7.94;100.00
32083;BME280;18597;48.328;7.932;2023-10-08T05:06:32;100469.44;;;7.94;100.00
32083;BME280;18597;48.328;7.932;2023-10-08T05:09:12;100459.19;;;8.02;100.00
32083;BME280;18597;48.328;7.932;2023-10-08T05:11:50;100464.97;;;8.09;100.00
32083;BME280;18597;48.328;7.932;2023-10-08T05:14:26;100461.63;;;8.05;100.00
32083;BME280;18597;48.328;7.932;2023-10-08T05:17:06;100453.75;;;8.03;100.00
32083;BME280;18597;48.328;7.932;2023-10-08T05:19:37;100454.72;;;8.17;100.00
32083;BME280;18597;48.328;7.932;2023-10-08T05:22:17;100448.59;;;8.29;100.00
32083;BME280;18597;48.328;7.932;2023-10-08T05:24:46;100446.41;;;8.21;100.00
32083;BME280;18597;48.328;7.932;2023-10-08T05:27:38;100452.97;;;8.16;100.00
32083;BME280;18597;48.328;7.932;2023-10-08T05:30:26;100461.19;;;8.41;100.00
32083;BME280;18597;48.328;7.932;2023-10-08T05:36:04;100456.78;;;8.26;100.00
32083;BME280;18597;48.328;7.932;2023-10-08T05:38:36;100453.75;;;8.03;100.00
32083;BME280;18597;48.328;7.932;2023-10-08T05:41:12;100456.41;;;7.89;100.00
32083;BME280;18597;48.328;7.932;2023-10-08T05:43:53;100468.47;;;7.81;100.00
32083;BME280;18597;48.328;7.932;2023-10-08T05:46:40;100470.44;;;7.77;100.00
32083;BME280;18597;48.328;7.932;2023-10-08T05:49:31;100468.94;;;7.73;100.00
32083;BME280;18597;48.328;7.932;2023-10-08T05:52:06;100463.25;;;8.22;100.00
32083;BME280;18597;48.328;7.932;2023-10-08T05:54:41;100471.69;;;8.14;100.00
32083;BME280;18597;48.328;7.932;2023-10-08T05:57:27;100476.66;;;8.20;100.00
32083;BME280;18597;48.328;7.932;2023-10-08T06:00:13;100478.44;;;8.05;100.00
32083;BME280;18597;48.328;7.932;2023-10-08T06:02:49;100484.63;;;8.06;100.00
32083;BME280;18597;48.328;7.932;2023-10-08T06:05:34;100483.19;;;8.15;100.00
32083;BME280;18597;48.328;7.932;2023-10-08T06:08:09;100485.97;;;8.27;100.00
32083;BME280;18597;48.328;7.932;2023-10-08T06:10:40;100484.75;;;8.47;100.00
32083;BME280;18597;48.328;7.932;2023-10-08T06:13:16;100486.59;;;8.74;100.00
32083;BME280;18597;48.328;7.932;2023-10-08T06:15:46;100503.09;;;9.07;100.00
32083;BME280;18597;48.328;7.932;2023-10-08T06:18:37;100493.44;;;10.10;100.00
32083;BME280;18597;48.328;7.932;2023-10-08T06:21:06;100496.00;;;10.99;100.00
32083;BME280;18597;48.328;7.932;2023-10-08T06:23:40;100511.75;;;11.15;100.00
32083;BME280;18597;48.328;7.932;2023-10-08T06:26:08;100508.16;;;11.51;100.00
32083;BME280;18597;48.328;7.932;2023-10-08T06:28:47;100512.69;;;11.26;100.00
32083;BME280;18597;48.328;7.932;2023-10-08T06:31:14;100516.59;;;10.73;100.00
32083;BME280;18597;48.328;7.932;2023-10-08T06:33:50;100527.09;;;10.63;100.00
32083;BME280;18597;48.328;7.932;2023-10-08T06:36:16;100524.13;;;10.42;100.00
32083;BME280;18597;48.328;7.932;2023-10-08T06:38:45;100519.19;;;10.49;100.00
32083;BME280;18597;48.328;7.932;2023-10-08T06:41:14;100525.28;;;10.64;100.00
32083;BME280;18597;48.328;7.932;2023-10-08T06:43:46;100527.75;;;10.67;100.00
32083;BME280;18597;48.328;7.932;2023-10-08T06:46:17;100525.56;;;10.72;100.00
32083;BME280;18597;48.328;7.932;2023-10-08T06:48:48;100531.69;;;10.61;100.00
32083;BME280;18597;48.328;7.932;2023-10-08T06:51:16;100530.31;;;10.55;100.00
32083;BME280;18597;48.328;7.932;2023-10-08T06:53:46;100529.75;;;10.63;100.00
32083;BME280;18597;48.328;7.932;2023-10-08T06:56:13;100531.59;;;10.63;100.00
32083;BME280;18597;48.328;7.932;2023-10-08T06:58:39;100535.81;;;10.78;100.00
32083;BME280;18597;48.328;7.932;2023-10-08T07:01:11;100536.84;;;10.88;100.00
32083;BME280;18597;48.328;7.932;2023-10-08T07:03:38;100534.25;;;11.12;100.00
32083;BME280;18597;48.328;7.932;2023-10-08T07:06:04;100533.03;;;11.40;100.00
32083;BME280;18597;48.328;7.932;2023-10-08T07:08:43;100532.47;;;11.48;100.00
32083;BME280;18597;48.328;7.932;2023-10-08T07:11:13;100532.72;;;11.56;100.00
32083;BME280;18597;48.328;7.932;2023-10-08T07:13:39;100532.72;;;11.56;100.00
32083;BME280;18597;48.328;7.932;2023-10-08T07:16:08;100525.69;;;11.55;100.00
32083;BME280;18597;48.328;7.932;2023-10-08T07:18:38;100516.09;;;11.87;100.00
32083;BME280;18597;48.328;7.932;2023-10-08T07:21:04;100512.97;;;12.05;100.00
32083;BME280;18597;48.328;7.932;2023-10-08T07:23:38;100517.50;;;12.27;100.00
32083;BME280;18597;48.328;7.932;2023-10-08T07:26:19;100512.03;;;12.39;100.00
32083;BME280;18597;48.328;7.932;2023-10-08T07:28:50;100510.81;;;12.66;100.00
32083;BME280;18597;48.328;7.932;2023-10-08T07:31:21;100507.13;;;12.89;100.00
32083;BME280;18597;48.328;7.932;2023-10-08T07:33:49;100513.16;;;13.14;100.00
32083;BME280;18597;48.328;7.932;2023-10-08T07:36:24;100514.66;;;13.50;100.00
32083;BME280;18597;48.328;7.932;2023-10-08T07:38:51;100508.59;;;13.69;100.00
32083;BME280;18597;48.328;7.932;2023-10-08T07:41:17;100512.44;;;13.97;100.00
32083;BME280;18597;48.328;7.932;2023-10-08T07:43:47;100512.91;;;14.23;100.00
32083;BME280;18597;48.328;7.932;2023-10-08T07:46:22;100506.41;;;14.46;100.00
32083;BME280;18597;48.328;7.932;2023-10-08T07:48:48;100513.69;;;14.65;100.00
32083;BME280;18597;48.328;7.932;2023-10-08T07:51:16;100506.91;;;14.40;100.00
32083;BME280;18597;48.328;7.932;2023-10-08T07:53:45;100513.56;;;14.36;99.58
32083;BME280;18597;48.328;7.932;2023-10-08T07:56:11;100512.81;;;14.34;100.00
32083;BME280;18597;48.328;7.932;2023-10-08T07:58:37;100514.94;;;14.51;100.00
32083;BME280;18597;48.328;7.932;2023-10-08T08:01:05;100523.38;;;14.77;100.00
32083;BME280;18597;48.328;7.932;2023-10-08T08:03:33;100527.69;;;14.99;96.72
32083;BME280;18597;48.328;7.932;2023-10-08T08:06:04;100528.59;;;15.29;97.80
32083;BME280;18597;48.328;7.932;2023-10-08T08:08:32;100530.03;;;15.71;94.86
32083;BME280;18597;48.328;7.932;2023-10-08T08:11:00;100511.66;;;16.23;92.50
32083;BME280;18597;48.328;7.932;2023-10-08T08:13:33;100514.44;;;16.88;86.64
32083;BME280;18597;48.328;7.932;2023-10-08T08:15:59;100508.47;;;17.30;78.49
32083;BME280;18597;48.328;7.932;2023-10-08T08:18:37;100513.75;;;17.49;74.88
32083;BME280;18597;48.328;7.932;2023-10-08T08:21:03;100500.94;;;17.33;73.79
32083;BME280;18597;48.328;7.932;2023-10-08T08:23:30;100510.63;;;15.97;86.57
32083;BME280;18597;48.328;7.932;2023-10-08T08:25:57;100514.59;;;15.83;90.83
32083;BME280;18597;48.328;7.932;2023-10-08T08:28:39;100511.00;;;16.02;88.06
32083;BME280;18597;48.328;7.932;2023-10-08T08:31:06;100514.13;;;16.07;87.90
32083;BME280;18597;48.328;7.932;2023-10-08T08:33:40;100515.22;;;16.61;83.77
32083;BME280;18597;48.328;7.932;2023-10-08T08:36:27;100510.75;;;17.07;82.47
32083;BME280;18597;48.328;7.932;2023-10-08T08:38:55;100514.34;;;17.43;79.55
32083;BME280;18597;48.328;7.932;2023-10-08T08:41:21;100520.63;;;17.79;75.18
32083;BME280;18597;48.328;7.932;2023-10-08T08:43:52;100522.50;;;17.79;66.37
32083;BME280;18597;48.328;7.932;2023-10-08T08:46:33;100526.78;;;17.89;69.15
32083;BME280;18597;48.328;7.932;2023-10-08T08:49:05;100527.28;;;18.11;68.14
32083;BME280;18597;48.328;7.932;2023-10-08T08:51:34;100531.50;;;18.31;72.59
32083;BME280;18597;48.328;7.932;2023-10-08T08:54:02;100534.69;;;18.52;70.84
32083;BME280;18597;48.328;7.932;2023-10-08T08:56:33;100529.72;;;18.74;71.01
32083;BME280;18597;48.328;7.932;2023-10-08T08:59:01;100529.13;;;18.88;69.07
32083;BME280;18597;48.328;7.932;2023-10-08T09:01:27;100532.84;;;18.87;68.46
32083;BME280;18597;48.328;7.932;2023-10-08T09:04:03;100531.31;;;18.84;66.50
32083;BME280;18597;48.328;7.932;2023-10-08T09:06:33;100531.13;;;18.78;68.44
32083;BME280;18597;48.328;7.932;2023-10-08T09:09:01;100526.72;;;18.77;68.41
32083;BME280;18597;48.328;7.932;2023-10-08T09:11:50;100524.38;;;18.82;67.89
32083;BME280;18597;48.328;7.932;2023-10-08T09:14:27;100532.19;;;18.93;67.10
32083;BME280;18597;48.328;7.932;2023-10-08T09:17:02;100536.16;;;19.07;64.57
32083;BME280;18597;48.328;7.932;2023-10-08T09:19:35;100538.06;;;19.23;63.55
32083;BME280;18597;48.328;7.932;2023-10-08T09:22:04;100533.34;;;19.41;62.66
32083;BME280;18597;48.328;7.932;2023-10-08T09:24:33;100530.19;;;19.62;62.64
32083;BME280;18597;48.328;7.932;2023-10-08T09:27:10;100536.81;;;19.76;62.75
32083;BME280;18597;48.328;7.932;2023-10-08T09:29:44;100534.44;;;19.97;62.00
32083;BME280;18597;48.328;7.932;2023-10-08T09:32:13;100520.69;;;20.15;60.40
32083;BME280;18597;48.328;7.932;2023-10-08T09:34:39;100530.16;;;20.35;59.43
32083;BME280;18597;48.328;7.932;2023-10-08T09:37:06;100524.72;;;20.43;63.44
32083;BME280;18597;48.328;7.932;2023-10-08T09:39:33;100529.16;;;20.44;66.69
32083;BME280;18597;48.328;7.932;2023-10-08T09:42:01;100529.81;;;20.46;67.33
32083;BME280;18597;48.328;7.932;2023-10-08T09:44:30;100534.41;;;20.46;65.53
32083;BME280;18597;48.328;7.932;2023-10-08T09:47:06;100532.72;;;20.45;64.34
32083;BME280;18597;48.328;7.932;2023-10-08T09:49:43;100539.31;;;20.50;62.41
32083;BME280;18597;48.328;7.932;2023-10-08T09:52:16;100529.63;;;20.64;62.79
32083;BME280;18597;48.328;7.932;2023-10-08T09:54:52;100537.78;;;20.64;61.09
32083;BME280;18597;48.328;7.932;2023-10-08T09:57:20;100532.63;;;20.69;61.56
32083;BME280;18597;48.328;7.932;2023-10-08T09:59:49;100527.34;;;20.76;61.17
32083;BME280;18597;48.328;7.932;2023-10-08T10:02:17;100529.56;;;20.81;57.77
32083;BME280;18597;48.328;7.932;2023-10-08T10:04:44;100525.63;;;20.83;57.16
32083;BME280;18597;48.328;7.932;2023-10-08T10:07:12;100521.53;;;20.95;60.53
32083;BME280;18597;48.328;7.932;2023-10-08T10:09:43;100519.66;;;20.96;60.88
32083;BME280;18597;48.328;7.932;2023-10-08T10:12:12;100522.41;;;20.88;58.74
32083;BME280;18597;48.328;7.932;2023-10-08T10:14:47;100521.41;;;20.81;59.92
32083;BME280;18597;48.328;7.932;2023-10-08T10:17:21;100526.63;;;20.90;59.87
32083;BME280;18597;48.328;7.932;2023-10-08T10:19:55;100529.41;;;21.13;56.73
32083;BME280;18597;48.328;7.932;2023-10-08T10:22:33;100530.31;;;21.37;58.36
32083;BME280;18597;48.328;7.932;2023-10-08T10:25:01;100524.47;;;21.48;57.45
32083;BME280;18597;48.328;7.932;2023-10-08T10:30:32;100531.25;;;21.75;57.12
32083;BME280;18597;48.328;7.932;2023-10-08T10:33:01;100529.97;;;21.85;56.61
32083;BME280;18597;48.328;7.932;2023-10-08T10:35:27;100530.56;;;21.96;54.28
32083;BME280;18597;48.328;7.932;2023-10-08T10:37:54;100528.81;;;22.03;54.84
32083;BME280;18597;48.328;7.932;2023-10-08T10:40:22;100515.66;;;22.14;54.33
32083;BME280;18597;48.328;7.932;2023-10-08T10:43:05;100517.91;;;22.26;54.24
32083;BME280;18597;48.328;7.932;2023-10-08T10:45:33;100527.88;;;22.33;52.67
32083;BME280;18597;48.328;7.932;2023-10-08T10:48:03;100517.06;;;22.40;53.32
32083;BME280;18597;48.328;7.932;2023-10-08T10:50:54;100513.88;;;22.51;49.91
32083;BME280;18597;48.328;7.932;2023-10-08T10:53:38;100501.31;;;22.65;50.11
32083;BME280;18597;48.328;7.932;2023-10-08T10:56:14;100507.97;;;22.77;50.17
32083;BME280;18597;48.328;7.932;2023-10-08T10:58:51;100500.47;;;22.94;48.39
32083;BME280;18597;48.328;7.932;2023-10-08T11:01:26;100493.50;;;23.06;48.34
32083;BME280;18597;48.328;7.932;2023-10-08T11:03:56;100498.91;;;23.21;48.08
32083;BME280;18597;48.328;7.932;2023-10-08T11:06:24;100490.22;;;23.32;47.76
32083;BME280;18597;48.328;7.932;2023-10-08T11:08:52;100492.03;;;23.46;46.55
32083;BME280;18597;48.328;7.932;2023-10-08T11:11:19;100491.84;;;23.48;45.00
32083;BME280;18597;48.328;7.932;2023-10-08T11:13:58;100491.72;;;23.56;44.68
32083;BME280;18597;48.328;7.932;2023-10-08T11:16:26;100489.09;;;23.63;46.36
32083;BME280;18597;48.328;7.932;2023-10-08T11:18:53;100480.38;;;23.74;46.57
32083;BME280;18597;48.328;7.932;2023-10-08T11:21:26;100472.69;;;23.84;46.95
32083;BME280;18597;48.328;7.932;2023-10-08T11:23:57;100468.16;;;23.91;46.47
32083;BME280;18597;48.328;7.932;2023-10-08T11:26:26;100458.31;;;23.97;46.65
32083;BME280;18597;48.328;7.932;2023-10-08T11:29:02;100458.59;;;24.08;46.82
32083;BME280;18597;48.328;7.932;2023-10-08T11:31:29;100454.03;;;24.16;47.22
32083;BME280;18597;48.328;7.932;2023-10-08T11:34:01;100454.28;;;24.21;47.69
32083;BME280;18597;48.328;7.932;2023-10-08T11:36:28;100455.19;;;24.28;46.98
32083;BME280;18597;48.328;7.932;2023-10-08T11:38:56;100449.59;;;24.36;46.88
32083;BME280;18597;48.328;7.932;2023-10-08T11:41:33;100450.06;;;24.46;47.31
32083;BME280;18597;48.328;7.932;2023-10-08T11:44:15;100446.09;;;24.55;45.47
32083;BME280;18597;48.328;7.932;2023-10-08T11:46:46;100449.13;;;24.67;46.39
32083;BME280;18597;48.328;7.932;2023-10-08T11:49:17;100436.75;;;24.78;46.65
32083;BME280;18597;48.328;7.932;2023-10-08T11:51:45;100441.19;;;24.85;46.86
32083;BME280;18597;48.328;7.932;2023-10-08T11:54:11;100433.69;;;24.94;46.06
32083;BME280;18597;48.328;7.932;2023-10-08T11:56:38;100432.47;;;25.03;45.79
32083;BME280;18597;48.328;7.932;2023-10-08T11:59:05;100426.81;;;25.11;44.97
32083;BME280;18597;48.328;7.932;2023-10-08T12:01:36;100426.00;;;25.24;44.46
32083;BME280;18597;48.328;7.932;2023-10-08T12:04:04;100422.22;;;25.32;44.27
32083;BME280;18597;48.328;7.932;2023-10-08T12:06:30;100424.75;;;25.40;43.95
32083;BME280;18597;48.328;7.932;2023-10-08T12:08:57;100412.97;;;25.46;43.29
32083;BME280;18597;48.328;7.932;2023-10-08T12:11:26;100418.03;;;25.56;42.27
32083;BME280;18597;48.328;7.932;2023-10-08T12:13:58;100409.41;;;25.65;42.24
32083;BME280;18597;48.328;7.932;2023-10-08T12:16:26;100404.38;;;25.76;42.13
32083;BME280;18597;48.328;7.932;2023-10-08T12:18:56;100405.88;;;25.85;40.99
32083;BME280;18597;48.328;7.932;2023-10-08T12:21:26;100397.22;;;25.94;41.21
32083;BME280;18597;48.328;7.932;2023-10-08T12:23:56;100399.94;;;25.94;40.87
32083;BME280;18597;48.328;7.932;2023-10-08T12:26:22;100395.53;;;26.00;41.41
32083;BME280;18597;48.328;7.932;2023-10-08T12:28:48;100393.16;;;26.10;41.96
32083;BME280;18597;48.328;7.932;2023-10-08T12:31:16;100385.13;;;26.22;42.06
32083;BME280;18597;48.328;7.932;2023-10-08T12:33:43;100382.59;;;26.27;41.42
32083;BME280;18597;48.328;7.932;2023-10-08T12:36:10;100378.78;;;26.35;42.10
32083;BME280;18597;48.328;7.932;2023-10-08T12:38:38;100385.94;;;26.42;41.83
32083;BME280;18597;48.328;7.932;2023-10-08T12:41:04;100373.06;;;26.43;41.17
32083;BME280;18597;48.328;7.932;2023-10-08T12:43:40;100374.34;;;26.47;37.79
32083;BME280;18597;48.328;7.932;2023-10-08T12:46:09;100374.59;;;26.39;37.61
32083;BME280;18597;48.328;7.932;2023-10-08T12:48:45;100379.81;;;26.34;36.60
32083;BME280;18597;48.328;7.932;2023-10-08T12:51:15;100375.00;;;26.29;35.00
32083;BME280;18597;48.328;7.932;2023-10-08T12:53:40;100383.84;;;26.31;34.83
32083;BME280;18597;48.328;7.932;2023-10-08T12:56:10;100372.66;;;26.46;37.78
32083;BME280;18597;48.328;7.932;2023-10-08T12:58:47;100373.66;;;26.58;36.90
32083;BME280;18597;48.328;7.932;2023-10-08T13:01:15;100376.13;;;26.66;38.49
32083;BME280;18597;48.328;7.932;2023-10-08T13:03:44;100375.50;;;26.71;39.00
32083;BME280;18597;48.328;7.932;2023-10-08T13:06:15;100372.94;;;26.76;36.26
32083;BME280;18597;48.328;7.932;2023-10-08T13:08:49;100377.75;;;26.80;38.32
32083;BME280;18597;48.328;7.932;2023-10-08T13:11:20;100380.69;;;26.86;37.99
32083;BME280;18597;48.328;7.932;2023-10-08T13:13:51;100374.94;;;26.94;37.80
32083;BME280;18597;48.328;7.932;2023-10-08T13:16:19;100372.56;;;27.04;37.15